createdAt,value
2023-02-20T00:01:27.044Z,12.97
2023-02-20T00:03:55.081Z,12.50
2023-02-20T00:06:23.021Z,12.00
2023-02-20T00:08:52.292Z,13.17
2023-02-20T00:11:20.298Z,12.23
2023-02-20T00:13:49.433Z,12.20
2023-02-20T00:16:17.558Z,11.47
2023-02-20T00:18:46.561Z,11.53
2023-02-20T00:21:14.532Z,11.00
2023-02-20T00:23:42.546Z,10.93
2023-02-20T00:26:13.577Z,11.93
2023-02-20T00:28:44.496Z,11.33
2023-02-20T00:31:15.771Z,11.20
2023-02-20T00:33:43.930Z,12.20
2023-02-20T00:36:16.742Z,11.03
2023-02-20T00:38:44.980Z,12.23
2023-02-20T00:41:17.346Z,11.13
2023-02-20T00:43:45.315Z,11.03
2023-02-20T00:46:14.317Z,11.50
2023-02-20T00:48:43.636Z,11.90
2023-02-20T00:51:31.421Z,11.70
2023-02-20T00:53:59.389Z,11.70
2023-02-20T00:56:29.002Z,11.37
2023-02-20T00:58:58.048Z,13.00
2023-02-20T01:01:27.511Z,12.73
2023-02-20T01:03:55.580Z,11.40
2023-02-20T01:06:23.638Z,11.67
2023-02-20T01:08:52.131Z,12.47
2023-02-20T01:11:22.015Z,12.37
2023-02-20T01:13:51.623Z,11.37
2023-02-20T01:16:19.657Z,11.73
2023-02-20T01:18:51.109Z,11.83
2023-02-20T01:21:19.641Z,12.87
2023-02-20T01:23:47.567Z,12.57
2023-02-20T01:26:15.715Z,12.17
2023-02-20T01:28:45.246Z,11.57
2023-02-20T01:31:14.737Z,11.23
2023-02-20T01:33:43.661Z,11.47
2023-02-20T01:36:12.973Z,12.43
2023-02-20T01:38:42.137Z,11.50
2023-02-20T01:41:11.317Z,11.63
2023-02-20T01:43:39.418Z,11.47
2023-02-20T01:46:48.590Z,11.23
2023-02-20T01:49:22.544Z,11.00
2023-02-20T01:51:53.345Z,10.60
2023-02-20T01:54:25.275Z,11.50
2023-02-20T01:56:54.788Z,10.93
2023-02-20T01:59:24.332Z,11.27
2023-02-20T02:01:54.024Z,9.83
2023-02-20T02:04:22.084Z,11.80
2023-02-20T02:06:53.101Z,11.77
2023-02-20T02:09:30.438Z,11.57
2023-02-20T02:11:58.372Z,11.13
2023-02-20T02:14:26.483Z,10.43
2023-02-20T02:17:11.586Z,11.20
2023-02-20T02:20:12.254Z,11.30
2023-02-20T02:23:21.377Z,11.10
2023-02-20T02:25:57.579Z,10.67
2023-02-20T02:28:52.464Z,10.57
2023-02-20T02:32:00.313Z,11.20
2023-02-20T02:34:50.643Z,10.50
2023-02-20T02:37:25.190Z,11.20
2023-02-20T02:40:01.144Z,10.83
2023-02-20T02:42:37.721Z,11.30
2023-02-20T02:45:17.069Z,11.33
2023-02-20T02:47:50.884Z,12.23
2023-02-20T02:50:24.780Z,11.80
2023-02-20T02:52:54.895Z,11.90
2023-02-20T02:55:25.090Z,12.30
2023-02-20T02:57:54.793Z,11.33
2023-02-20T03:00:27.819Z,11.80
2023-02-20T03:03:00.976Z,11.03
2023-02-20T03:05:40.218Z,12.23
2023-02-20T03:08:22.322Z,12.30
2023-02-20T03:10:53.409Z,11.67
2023-02-20T03:13:41.869Z,12.13
2023-02-20T03:16:12.920Z,12.83
2023-02-20T03:18:42.889Z,12.07
2023-02-20T03:21:15.346Z,13.47
2023-02-20T03:23:51.051Z,12.50
2023-02-20T03:26:23.428Z,12.67
2023-02-20T03:28:57.844Z,12.70
2023-02-20T03:31:32.666Z,12.30
2023-02-20T03:34:24.904Z,12.90
2023-02-20T03:37:16.371Z,13.77
2023-02-20T03:40:07.604Z,13.03
2023-02-20T03:42:56.193Z,13.10
2023-02-20T03:45:33.092Z,12.13
2023-02-20T03:48:05.938Z,12.83
2023-02-20T03:50:34.808Z,12.97
2023-02-20T03:53:03.689Z,13.53
2023-02-20T03:55:33.851Z,13.13
2023-02-20T03:58:09.309Z,13.03
2023-02-20T04:00:41.720Z,13.93
2023-02-20T04:03:16.162Z,14.07
2023-02-20T04:05:49.944Z,11.57
2023-02-20T04:08:23.615Z,12.87
2023-02-20T04:10:57.611Z,12.63
2023-02-20T04:13:26.929Z,13.63
2023-02-20T04:15:59.577Z,13.17
2023-02-20T04:18:30.508Z,12.67
2023-02-20T04:21:01.811Z,13.63
2023-02-20T04:23:39.005Z,12.73
2023-02-20T04:26:12.188Z,11.93
2023-02-20T04:28:42.882Z,12.20
2023-02-20T04:31:12.305Z,11.60
2023-02-20T04:33:40.491Z,12.23
2023-02-20T04:36:16.835Z,12.00
2023-02-20T04:38:44.966Z,11.70
2023-02-20T04:41:17.542Z,11.40
2023-02-20T04:43:47.203Z,11.23
2023-02-20T04:46:15.663Z,12.47
2023-02-20T04:48:43.723Z,12.63
2023-02-20T04:51:11.692Z,13.17
2023-02-20T04:53:39.725Z,14.17
2023-02-20T04:56:08.025Z,13.70
2023-02-20T04:58:40.738Z,13.87
2023-02-20T05:01:18.772Z,14.67
2023-02-20T05:03:46.692Z,13.80
2023-02-20T05:06:14.648Z,14.30
2023-02-20T05:08:42.712Z,13.67
2023-02-20T05:11:10.743Z,13.37
2023-02-20T05:13:40.012Z,15.10
2023-02-20T05:16:08.587Z,13.03
2023-02-20T05:18:36.574Z,12.83
2023-02-20T05:21:22.243Z,13.37
2023-02-20T05:23:50.220Z,12.60
2023-02-20T05:26:21.547Z,13.60
2023-02-20T05:28:50.881Z,13.07
2023-02-20T05:31:20.815Z,13.53
2023-02-20T05:33:48.780Z,12.20
2023-02-20T05:36:17.887Z,12.47
2023-02-20T05:38:49.107Z,12.57
2023-02-20T05:41:17.627Z,12.70
2023-02-20T05:43:45.926Z,11.30
2023-02-20T05:46:15.662Z,11.90
2023-02-20T05:48:43.983Z,12.03
2023-02-20T05:51:21.577Z,11.17
2023-02-20T05:53:49.603Z,11.40
2023-02-20T05:56:17.544Z,10.40
2023-02-20T05:58:46.499Z,10.83
2023-02-20T06:01:26.506Z,11.37
2023-02-20T06:03:54.813Z,10.47
2023-02-20T06:06:23.094Z,11.07
2023-02-20T06:08:51.189Z,11.13
2023-02-20T06:11:19.085Z,10.23
2023-02-20T06:13:47.434Z,10.97
2023-02-20T06:16:24.961Z,10.20
2023-02-20T06:18:53.108Z,11.23
2023-02-20T06:21:23.142Z,10.70
2023-02-20T06:23:52.464Z,9.70
2023-02-20T06:26:21.119Z,10.23
2023-02-20T06:28:50.618Z,9.03
2023-02-20T06:31:24.826Z,9.80
2023-02-20T06:33:53.191Z,10.13
2023-02-20T06:36:23.689Z,9.93
2023-02-20T06:38:52.288Z,9.57
2023-02-20T06:41:20.228Z,9.20
2023-02-20T06:43:48.221Z,9.27
2023-02-20T06:46:16.438Z,9.13
2023-02-20T06:48:50.793Z,8.30
2023-02-20T06:51:19.198Z,7.83
2023-02-20T06:53:47.409Z,9.10
2023-02-20T06:56:18.634Z,8.50
2023-02-20T06:58:47.727Z,8.23
2023-02-20T07:01:15.730Z,8.37
2023-02-20T07:03:44.933Z,9.73
2023-02-20T07:06:14.359Z,8.77
2023-02-20T07:08:42.329Z,8.93
2023-02-20T07:11:10.523Z,8.40
2023-02-20T07:13:38.564Z,8.57
2023-02-20T07:16:07.259Z,8.30
2023-02-20T07:18:35.322Z,9.47
2023-02-20T07:21:03.339Z,9.53
2023-02-20T07:23:32.623Z,8.40
2023-02-20T07:26:00.557Z,8.03
2023-02-20T07:28:28.538Z,7.90
2023-02-20T07:30:56.536Z,7.87
2023-02-20T07:33:24.456Z,7.87
2023-02-20T07:35:52.350Z,7.97
2023-02-20T07:38:20.404Z,8.67
2023-02-20T07:40:49.744Z,8.23
2023-02-20T07:43:17.647Z,8.13
2023-02-20T07:45:45.562Z,8.27
2023-02-20T07:48:13.516Z,8.77
2023-02-20T07:50:41.403Z,8.77
2023-02-20T07:53:09.348Z,8.43
2023-02-20T07:55:37.298Z,8.57
2023-02-20T07:58:06.730Z,8.47
2023-02-20T08:00:34.682Z,8.37
2023-02-20T08:03:02.791Z,8.00
2023-02-20T08:05:40.159Z,8.67
2023-02-20T08:08:11.741Z,8.23
2023-02-20T08:10:39.880Z,8.90
2023-02-20T08:13:09.239Z,9.17
2023-02-20T08:15:37.198Z,9.03
2023-02-20T08:18:12.567Z,9.30
2023-02-20T08:20:43.424Z,8.70
2023-02-20T08:23:18.397Z,8.93
2023-02-20T08:25:46.486Z,8.63
2023-02-20T08:28:15.751Z,9.17
2023-02-20T08:30:44.545Z,8.93
2023-02-20T08:33:12.599Z,8.17
2023-02-20T08:35:40.591Z,8.33
2023-02-20T08:38:24.684Z,10.23
2023-02-20T08:40:52.552Z,9.37
2023-02-20T08:43:21.828Z,9.10
2023-02-20T08:45:49.794Z,9.57
2023-02-20T08:48:17.976Z,9.57
2023-02-20T08:50:46.872Z,9.80
2023-02-20T08:53:15.905Z,9.37
2023-02-20T08:55:44.048Z,9.47
2023-02-20T08:58:12.427Z,9.83
2023-02-20T09:00:41.751Z,9.83
2023-02-20T09:03:09.719Z,9.17
2023-02-20T09:05:39.233Z,9.17
2023-02-20T09:08:07.433Z,9.47
2023-02-20T09:10:35.523Z,8.43
2023-02-20T09:13:03.847Z,9.40
2023-02-20T09:15:35.856Z,10.23
2023-02-20T09:18:06.446Z,9.80
2023-02-20T09:20:34.449Z,9.27
2023-02-20T09:23:02.345Z,9.50
2023-02-20T09:25:30.286Z,9.57
2023-02-20T09:27:58.311Z,9.37
2023-02-20T09:30:26.592Z,9.20
2023-02-20T09:32:55.110Z,8.83
2023-02-20T09:35:27.810Z,9.03
2023-02-20T09:37:56.325Z,9.27
2023-02-20T09:40:26.124Z,9.17
2023-02-20T09:43:13.197Z,9.67
2023-02-20T09:45:44.978Z,9.17
2023-02-20T09:48:24.847Z,9.03
2023-02-20T09:50:58.567Z,9.57
2023-02-20T09:53:31.649Z,9.10
2023-02-20T09:56:01.302Z,8.73
2023-02-20T09:58:38.611Z,8.57
2023-02-20T10:01:07.472Z,8.73
2023-02-20T10:03:40.955Z,9.07
2023-02-20T10:06:17.658Z,8.70
2023-02-20T10:08:48.523Z,9.10
2023-02-20T10:11:25.860Z,9.50
2023-02-20T10:14:01.550Z,8.60
2023-02-20T10:16:36.904Z,9.63
2023-02-20T10:19:18.555Z,10.00
2023-02-20T10:21:55.002Z,9.53
2023-02-20T10:24:38.352Z,10.60
2023-02-20T10:27:17.824Z,9.17
2023-02-20T10:29:46.786Z,9.53
2023-02-20T10:32:22.781Z,10.27
2023-02-20T10:34:58.634Z,10.30
2023-02-20T10:37:46.643Z,9.50
2023-02-20T10:40:24.313Z,10.40
2023-02-20T10:43:00.575Z,9.93
2023-02-20T10:45:39.137Z,9.50
2023-02-20T10:48:08.768Z,9.83
2023-02-20T10:50:42.504Z,9.67
2023-02-20T10:53:21.874Z,10.10
2023-02-20T10:55:55.012Z,9.57
2023-02-20T10:58:27.711Z,10.10
2023-02-20T11:00:57.509Z,9.90
2023-02-20T11:03:30.876Z,10.60
2023-02-20T11:06:02.628Z,9.73
2023-02-20T11:08:31.905Z,9.70
2023-02-20T11:11:07.025Z,9.93
2023-02-20T11:13:35.050Z,10.07
2023-02-20T11:16:03.150Z,9.70
2023-02-20T11:18:36.214Z,9.73
2023-02-20T11:21:04.255Z,10.93
2023-02-20T11:23:41.576Z,10.57
2023-02-20T11:26:32.329Z,10.20
2023-02-20T11:29:05.651Z,9.93
2023-02-20T11:31:35.138Z,10.13
2023-02-20T11:34:05.103Z,9.50
2023-02-20T11:36:38.702Z,10.17
2023-02-20T11:39:20.784Z,8.83
2023-02-20T11:41:51.293Z,10.33
2023-02-20T11:44:25.566Z,9.60
2023-02-20T11:47:13.041Z,10.07
2023-02-20T11:49:41.126Z,9.30
2023-02-20T11:52:11.315Z,9.70
2023-02-20T11:54:40.617Z,10.43
2023-02-20T11:57:26.283Z,10.40
2023-02-20T12:00:10.832Z,9.93
2023-02-20T12:02:50.654Z,9.50
2023-02-20T12:05:19.898Z,9.70
2023-02-20T12:07:57.783Z,10.37
2023-02-20T12:10:34.248Z,11.47
2023-02-20T12:13:03.150Z,11.60
2023-02-20T12:15:31.314Z,10.93
2023-02-20T12:18:23.559Z,11.63
2023-02-20T12:20:58.844Z,11.87
2023-02-20T12:23:40.190Z,10.77
2023-02-20T12:26:21.345Z,10.57
2023-02-20T12:28:59.977Z,10.90
2023-02-20T12:31:40.242Z,10.23
2023-02-20T12:34:34.437Z,10.00
2023-02-20T12:37:11.417Z,11.30
2023-02-20T12:39:51.445Z,10.87
2023-02-20T12:42:29.937Z,10.63
2023-02-20T12:45:26.320Z,9.80
2023-02-20T12:48:09.256Z,10.17
2023-02-20T12:51:00.200Z,10.30
2023-02-20T12:53:53.108Z,10.53
2023-02-20T12:56:39.590Z,10.17
2023-02-20T12:59:22.415Z,10.60
2023-02-20T13:01:53.736Z,11.17
2023-02-20T13:04:28.944Z,11.17
2023-02-20T13:07:04.932Z,10.30
2023-02-20T13:09:36.530Z,11.90
2023-02-20T13:12:08.426Z,11.43
2023-02-20T13:14:51.687Z,12.20
2023-02-20T13:17:30.389Z,11.27
2023-02-20T13:20:06.382Z,10.50
2023-02-20T13:22:34.370Z,11.97
2023-02-20T13:25:35.864Z,11.63
2023-02-20T13:28:42.680Z,12.23
2023-02-20T13:31:14.857Z,11.77
2023-02-20T13:33:45.068Z,11.67
2023-02-20T13:36:39.613Z,11.57
2023-02-20T13:39:49.583Z,10.83
2023-02-20T13:42:30.045Z,10.80
2023-02-20T13:44:59.669Z,11.30
2023-02-20T13:47:40.813Z,10.80
2023-02-20T13:50:31.564Z,10.60
2023-02-20T13:53:03.322Z,9.90
2023-02-20T13:55:32.203Z,10.37
2023-02-20T13:58:06.582Z,9.67
2023-02-20T14:00:45.074Z,9.80
2023-02-20T14:03:19.285Z,9.53
2023-02-20T14:05:47.657Z,9.67
2023-02-20T14:08:19.871Z,9.67
2023-02-20T14:10:49.658Z,9.00
2023-02-20T14:13:30.862Z,9.63
2023-02-20T14:16:22.950Z,9.87
2023-02-20T14:18:52.277Z,10.10
2023-02-20T14:21:22.823Z,9.73
2023-02-20T14:23:52.316Z,9.40
2023-02-20T14:26:22.407Z,9.23
2023-02-20T14:28:53.119Z,8.70
2023-02-20T14:31:25.108Z,9.17
2023-02-20T14:33:57.725Z,9.20
2023-02-20T14:36:40.976Z,8.73
2023-02-20T14:39:23.490Z,9.33
2023-02-20T14:41:57.063Z,8.27
2023-02-20T14:44:25.943Z,8.53
2023-02-20T14:46:56.179Z,9.27
2023-02-20T14:49:29.003Z,8.70
2023-02-20T14:52:16.943Z,8.53
2023-02-20T14:54:56.463Z,7.87
2023-02-20T14:57:24.937Z,8.23
2023-02-20T14:59:52.848Z,8.90
2023-02-20T15:02:33.929Z,8.50
2023-02-20T15:05:07.295Z,8.13
2023-02-20T15:07:36.730Z,8.67
2023-02-20T15:10:27.735Z,8.77
2023-02-20T15:12:58.859Z,9.00
2023-02-20T15:15:26.982Z,8.57
2023-02-20T15:18:07.893Z,9.00
2023-02-20T15:20:40.126Z,8.77
2023-02-20T15:23:22.223Z,8.70
2023-02-20T15:25:50.303Z,8.30
2023-02-20T15:28:27.570Z,7.97
2023-02-20T15:31:08.076Z,8.80
2023-02-20T15:33:38.123Z,9.10
2023-02-20T15:36:12.651Z,8.87
2023-02-20T15:38:41.785Z,8.47
2023-02-20T15:41:11.325Z,8.77
2023-02-20T15:43:49.746Z,8.67
2023-02-20T15:46:20.606Z,8.30
2023-02-20T15:48:48.858Z,8.47
2023-02-20T15:51:21.586Z,8.57
2023-02-20T15:53:51.100Z,9.10
2023-02-20T15:56:19.857Z,8.90
2023-02-20T15:58:49.416Z,9.53
2023-02-20T16:01:17.872Z,9.33
2023-02-20T16:03:54.716Z,9.20
2023-02-20T16:06:24.760Z,9.15
2023-02-20T16:08:53.728Z,8.53
2023-02-20T16:11:24.101Z,8.87
2023-02-20T16:13:57.131Z,9.53
2023-02-20T16:16:32.072Z,9.07
2023-02-20T16:19:00.238Z,9.77
2023-02-20T16:21:29.803Z,10.27
2023-02-20T16:23:57.812Z,9.47
2023-02-20T16:26:29.736Z,9.60
2023-02-20T16:28:59.713Z,9.77
2023-02-20T16:32:13.429Z,10.27
2023-02-20T16:34:41.448Z,9.10
2023-02-20T16:37:12.576Z,8.97
2023-02-20T16:39:41.035Z,8.97
2023-02-20T16:42:22.601Z,9.10
2023-02-20T16:44:50.797Z,8.70
2023-02-20T16:47:21.272Z,8.20
2023-02-20T16:49:49.824Z,8.17
2023-02-20T16:52:25.070Z,8.77
2023-02-20T16:54:54.749Z,9.00
2023-02-20T16:57:23.949Z,8.93
2023-02-20T16:59:55.439Z,8.90
2023-02-20T17:02:26.095Z,8.90
2023-02-20T17:04:54.293Z,9.30
2023-02-20T17:07:23.904Z,7.87
2023-02-20T17:09:51.940Z,8.43
2023-02-20T17:12:23.283Z,8.23
2023-02-20T17:14:53.484Z,8.37
2023-02-20T17:17:21.799Z,8.43
2023-02-20T17:19:52.739Z,8.40
2023-02-20T17:22:23.138Z,8.63
2023-02-20T17:24:52.198Z,9.00
2023-02-20T17:27:20.299Z,8.90
2023-02-20T17:29:48.809Z,8.73
2023-02-20T17:32:17.315Z,8.87
2023-02-20T17:34:45.236Z,8.33
2023-02-20T17:37:14.347Z,8.83
2023-02-20T17:39:43.557Z,8.87
2023-02-20T17:42:12.385Z,8.63
2023-02-20T17:44:40.689Z,8.77
2023-02-20T17:47:10.384Z,8.47
2023-02-20T17:49:41.055Z,9.40
2023-02-20T17:52:09.876Z,9.20
2023-02-20T17:54:39.486Z,8.80
2023-02-20T17:57:08.740Z,8.67
2023-02-20T17:59:39.426Z,8.77
2023-02-20T18:02:08.587Z,9.10
2023-02-20T18:04:36.590Z,9.57
2023-02-20T18:07:05.315Z,10.00
2023-02-20T18:09:34.084Z,8.63
2023-02-20T18:12:02.544Z,9.90
2023-02-20T18:14:32.096Z,10.57
2023-02-20T18:17:00.015Z,11.37
2023-02-20T18:19:27.985Z,11.03
2023-02-20T18:21:55.905Z,11.50
2023-02-20T18:24:25.765Z,10.47
2023-02-20T18:26:54.751Z,11.07
2023-02-20T18:29:23.098Z,11.07
2023-02-20T18:31:53.668Z,11.17
2023-02-20T18:34:22.889Z,10.90
2023-02-20T18:36:50.938Z,11.00
2023-02-20T18:39:18.989Z,11.07
2023-02-20T18:41:50.964Z,11.20
2023-02-20T18:44:19.389Z,11.13
2023-02-20T18:46:47.394Z,10.57
2023-02-20T18:49:16.766Z,11.40
2023-02-20T18:51:45.712Z,12.17
2023-02-20T18:54:18.046Z,11.83
2023-02-20T18:56:48.301Z,11.80
2023-02-20T18:59:17.024Z,11.80
2023-02-20T19:01:46.160Z,12.83
2023-02-20T19:04:16.041Z,12.17
2023-02-20T19:06:44.926Z,12.43
2023-02-20T19:09:15.189Z,13.10
2023-02-20T19:11:43.375Z,12.70
2023-02-20T19:14:11.253Z,13.07
2023-02-20T19:16:39.210Z,13.40
2023-02-20T19:19:07.866Z,12.40
2023-02-20T19:21:37.133Z,12.90
2023-02-20T19:24:06.540Z,13.43
2023-02-20T19:26:34.478Z,13.10
2023-02-20T19:29:02.394Z,12.33
2023-02-20T19:31:30.388Z,13.00
2023-02-20T19:33:58.340Z,13.40
2023-02-20T19:36:26.404Z,12.97
2023-02-20T19:38:55.773Z,13.90
2023-02-20T19:41:23.679Z,13.67
2023-02-20T19:43:51.637Z,13.40
2023-02-20T19:46:22.272Z,14.07
2023-02-20T19:48:50.605Z,14.23
2023-02-20T19:51:20.968Z,13.90
2023-02-20T19:53:50.172Z,14.17
2023-02-20T19:56:19.456Z,13.63
2023-02-20T19:58:47.419Z,15.37
2023-02-20T20:01:17.637Z,13.23
2023-02-20T20:03:45.913Z,14.83
2023-02-20T20:06:15.244Z,13.27
2023-02-20T20:09:07.429Z,14.47
2023-02-20T20:11:32.945Z,15.10
2023-02-20T20:14:00.919Z,14.83
2023-02-20T20:16:28.934Z,14.53
2023-02-20T20:18:58.265Z,15.37
2023-02-20T20:21:26.638Z,14.07
2023-02-20T20:23:55.304Z,14.93
2023-02-20T20:26:26.579Z,15.03
2023-02-20T20:28:56.135Z,15.13
2023-02-20T20:31:26.127Z,14.93
2023-02-20T20:33:54.746Z,14.67
2023-02-20T20:36:22.704Z,15.47
2023-02-20T20:38:50.782Z,15.57
2023-02-20T20:41:18.751Z,16.03
2023-02-20T20:43:47.794Z,15.93
2023-02-20T20:46:17.686Z,15.67
2023-02-20T20:48:46.293Z,16.07
2023-02-20T20:51:15.078Z,17.03
2023-02-20T20:53:43.768Z,16.03
2023-02-20T20:56:12.570Z,16.47
2023-02-20T20:58:40.765Z,16.00
2023-02-20T21:01:08.716Z,16.20
2023-02-20T21:03:38.060Z,15.77
2023-02-20T21:06:06.347Z,16.47
2023-02-20T21:08:34.257Z,15.53
2023-02-20T21:11:02.187Z,16.93
2023-02-20T21:13:30.072Z,16.63
2023-02-20T21:15:57.962Z,16.00
2023-02-20T21:18:25.902Z,16.47
2023-02-20T21:20:55.257Z,16.00
2023-02-20T21:23:23.188Z,16.57
2023-02-20T21:25:51.070Z,16.83
2023-02-20T21:28:18.973Z,17.00
2023-02-20T21:30:47.573Z,15.37
2023-02-20T21:33:15.988Z,16.40
2023-02-20T21:35:43.989Z,16.63
2023-02-20T21:38:13.228Z,16.40
2023-02-20T21:40:41.112Z,15.73
2023-02-20T21:43:28.392Z,16.87
2023-02-20T21:45:56.319Z,15.87
2023-02-20T21:48:24.242Z,16.23
2023-02-20T21:50:52.229Z,14.37
2023-02-20T21:53:21.494Z,15.13
2023-02-20T21:55:49.686Z,16.83
2023-02-20T21:58:22.473Z,16.03
2023-02-20T22:00:49.296Z,16.37
2023-02-20T22:03:16.067Z,17.40
2023-02-20T22:05:42.870Z,16.43
2023-02-20T22:08:28.214Z,16.33
2023-02-20T22:11:15.419Z,16.60
2023-02-20T22:14:01.022Z,16.80
2023-02-20T22:16:46.299Z,16.60
2023-02-20T22:19:31.662Z,16.37
2023-02-20T22:22:19.563Z,18.30
2023-02-20T22:25:05.170Z,17.00
2023-02-20T22:27:51.989Z,16.97
2023-02-20T22:30:37.349Z,17.70
2023-02-20T22:33:22.817Z,17.37
2023-02-20T22:36:08.415Z,17.47
2023-02-20T22:38:53.959Z,17.50
2023-02-20T22:41:39.775Z,18.47
2023-02-20T22:44:26.534Z,19.27
2023-02-20T22:47:11.849Z,18.60
2023-02-20T22:49:57.227Z,17.40
2023-02-20T22:52:42.721Z,18.67
2023-02-20T22:55:30.517Z,18.40
2023-02-20T22:58:16.047Z,18.30
2023-02-20T23:01:03.304Z,19.67
2023-02-20T23:03:48.943Z,20.87
2023-02-20T23:06:37.664Z,19.97
2023-02-20T23:09:23.355Z,18.50
2023-02-20T23:12:09.016Z,19.17
2023-02-20T23:14:54.804Z,19.17
2023-02-20T23:17:41.495Z,20.10
2023-02-20T23:20:29.263Z,20.77
2023-02-20T23:23:14.779Z,19.63
2023-02-20T23:26:00.573Z,19.40
2023-02-20T23:28:46.594Z,18.77
2023-02-20T23:31:32.741Z,19.63
2023-02-20T23:34:19.775Z,20.47
2023-02-20T23:37:09.405Z,18.73
2023-02-20T23:39:55.865Z,18.93
2023-02-20T23:42:41.617Z,18.83
2023-02-20T23:45:27.817Z,19.77
2023-02-20T23:48:13.730Z,20.40
2023-02-20T23:51:00.435Z,20.27
2023-02-20T23:53:46.085Z,19.27
2023-02-20T23:56:32.020Z,18.47
2023-02-20T23:59:17.444Z,19.13
